sensor_id;sensor_type;location;lat;lon;timestamp;P1;durP1;ratioP1;P2;durP2;ratioP2
78844;SDS011;68195;50.854;2.860;2023-03-31T00:01:50;10.38;;;1.92;;
78844;SDS011;68195;50.854;2.860;2023-03-31T00:04:16;7.97;;;2.13;;
78844;SDS011;68195;50.854;2.860;2023-03-31T00:06:48;7.35;;;1.60;;
78844;SDS011;68195;50.854;2.860;2023-03-31T00:09:16;13.15;;;2.58;;
78844;SDS011;68195;50.854;2.860;2023-03-31T00:11:43;12.55;;;2.58;;
78844;SDS011;68195;50.854;2.860;2023-03-31T00:14:11;11.27;;;2.58;;
78844;SDS011;68195;50.854;2.860;2023-03-31T00:16:37;7.53;;;1.98;;
78844;SDS011;68195;50.854;2.860;2023-03-31T00:19:04;8.60;;;1.80;;
78844;SDS011;68195;50.854;2.860;2023-03-31T00:21:34;11.98;;;2.50;;
78844;SDS011;68195;50.854;2.860;2023-03-31T00:24:03;8.52;;;1.58;;
78844;SDS011;68195;50.854;2.860;2023-03-31T00:26:30;8.57;;;1.70;;
78844;SDS011;68195;50.854;2.860;2023-03-31T00:28:58;10.52;;;2.58;;
78844;SDS011;68195;50.854;2.860;2023-03-31T00:31:24;9.55;;;2.00;;
78844;SDS011;68195;50.854;2.860;2023-03-31T00:33:53;9.90;;;1.85;;
78844;SDS011;68195;50.854;2.860;2023-03-31T00:36:19;4.82;;;1.83;;
78844;SDS011;68195;50.854;2.860;2023-03-31T00:38:54;6.25;;;2.13;;
78844;SDS011;68195;50.854;2.860;2023-03-31T00:41:23;6.53;;;1.85;;
78844;SDS011;68195;50.854;2.860;2023-03-31T00:54:46;8.90;;;2.17;;
78844;SDS011;68195;50.854;2.860;2023-03-31T00:57:17;8.73;;;2.58;;
78844;SDS011;68195;50.854;2.860;2023-03-31T00:59:46;7.00;;;1.75;;
78844;SDS011;68195;50.854;2.860;2023-03-31T01:02:23;9.75;;;2.20;;
78844;SDS011;68195;50.854;2.860;2023-03-31T01:04:51;7.72;;;2.47;;
78844;SDS011;68195;50.854;2.860;2023-03-31T01:07:26;6.13;;;2.03;;
78844;SDS011;68195;50.854;2.860;2023-03-31T01:09:59;8.73;;;3.42;;
78844;SDS011;68195;50.854;2.860;2023-03-31T01:12:27;7.72;;;2.20;;
78844;SDS011;68195;50.854;2.860;2023-03-31T01:14:54;9.00;;;2.25;;
78844;SDS011;68195;50.854;2.860;2023-03-31T01:17:25;8.05;;;2.42;;
78844;SDS011;68195;50.854;2.860;2023-03-31T01:20:16;7.53;;;2.03;;
78844;SDS011;68195;50.854;2.860;2023-03-31T01:48:00;11.15;;;2.75;;
78844;SDS011;68195;50.854;2.860;2023-03-31T01:55:46;7.10;;;2.05;;
78844;SDS011;68195;50.854;2.860;2023-03-31T02:00:53;7.65;;;1.90;;
78844;SDS011;68195;50.854;2.860;2023-03-31T02:03:27;11.27;;;2.42;;
78844;SDS011;68195;50.854;2.860;2023-03-31T02:05:58;5.13;;;1.92;;
78844;SDS011;68195;50.854;2.860;2023-03-31T02:08:30;7.00;;;1.80;;
78844;SDS011;68195;50.854;2.860;2023-03-31T02:11:01;8.82;;;2.05;;
78844;SDS011;68195;50.854;2.860;2023-03-31T02:13:27;4.43;;;1.75;;
78844;SDS011;68195;50.854;2.860;2023-03-31T02:15:56;6.35;;;2.42;;
78844;SDS011;68195;50.854;2.860;2023-03-31T02:18:29;5.93;;;1.77;;
78844;SDS011;68195;50.854;2.860;2023-03-31T02:20:57;7.38;;;1.60;;
78844;SDS011;68195;50.854;2.860;2023-03-31T02:23:27;2.97;;;2.22;;
78844;SDS011;68195;50.854;2.860;2023-03-31T02:26:12;5.05;;;1.40;;
78844;SDS011;68195;50.854;2.860;2023-03-31T02:28:41;4.88;;;1.45;;
78844;SDS011;68195;50.854;2.860;2023-03-31T02:34:09;6.20;;;1.67;;
78844;SDS011;68195;50.854;2.860;2023-03-31T02:36:35;4.78;;;1.30;;
78844;SDS011;68195;50.854;2.860;2023-03-31T02:39:05;6.13;;;1.50;;
78844;SDS011;68195;50.854;2.860;2023-03-31T02:41:33;2.78;;;1.00;;
78844;SDS011;68195;50.854;2.860;2023-03-31T02:44:02;4.38;;;1.30;;
78844;SDS011;68195;50.854;2.860;2023-03-31T02:46:32;4.07;;;1.35;;
78844;SDS011;68195;50.854;2.860;2023-03-31T02:49:01;3.40;;;1.23;;
78844;SDS011;68195;50.854;2.860;2023-03-31T03:05:43;6.30;;;1.63;;
78844;SDS011;68195;50.854;2.860;2023-03-31T03:08:37;2.92;;;1.30;;
78844;SDS011;68195;50.854;2.860;2023-03-31T03:16:25;3.47;;;1.17;;
78844;SDS011;68195;50.854;2.860;2023-03-31T03:18:58;2.25;;;0.93;;
78844;SDS011;68195;50.854;2.860;2023-03-31T03:21:25;4.88;;;1.15;;
78844;SDS011;68195;50.854;2.860;2023-03-31T03:23:54;2.47;;;0.77;;
78844;SDS011;68195;50.854;2.860;2023-03-31T03:26:20;2.38;;;0.50;;
78844;SDS011;68195;50.854;2.860;2023-03-31T03:28:51;2.65;;;0.90;;
78844;SDS011;68195;50.854;2.860;2023-03-31T03:31:17;4.13;;;0.73;;
78844;SDS011;68195;50.854;2.860;2023-03-31T03:33:43;0.95;;;0.65;;
78844;SDS011;68195;50.854;2.860;2023-03-31T03:36:13;3.90;;;0.90;;
78844;SDS011;68195;50.854;2.860;2023-03-31T03:38:41;3.95;;;0.98;;
78844;SDS011;68195;50.854;2.860;2023-03-31T03:41:07;2.58;;;0.70;;
78844;SDS011;68195;50.854;2.860;2023-03-31T03:43:32;2.90;;;0.80;;
78844;SDS011;68195;50.854;2.860;2023-03-31T03:45:57;2.63;;;0.73;;
78844;SDS011;68195;50.854;2.860;2023-03-31T03:48:23;1.48;;;0.52;;
78844;SDS011;68195;50.854;2.860;2023-03-31T03:50:53;3.25;;;0.90;;
78844;SDS011;68195;50.854;2.860;2023-03-31T03:53:19;4.03;;;1.17;;
78844;SDS011;68195;50.854;2.860;2023-03-31T03:55:44;1.25;;;0.60;;
78844;SDS011;68195;50.854;2.860;2023-03-31T03:58:12;3.25;;;1.00;;
78844;SDS011;68195;50.854;2.860;2023-03-31T04:00:40;1.48;;;0.77;;
78844;SDS011;68195;50.854;2.860;2023-03-31T04:03:06;1.17;;;0.70;;
78844;SDS011;68195;50.854;2.860;2023-03-31T04:05:31;3.25;;;0.98;;
78844;SDS011;68195;50.854;2.860;2023-03-31T04:07:59;0.82;;;0.50;;
78844;SDS011;68195;50.854;2.860;2023-03-31T04:10:24;1.58;;;0.90;;
78844;SDS011;68195;50.854;2.860;2023-03-31T04:12:52;5.20;;;1.23;;
78844;SDS011;68195;50.854;2.860;2023-03-31T04:15:20;2.63;;;0.80;;
78844;SDS011;68195;50.854;2.860;2023-03-31T04:17:45;2.33;;;1.00;;
78844;SDS011;68195;50.854;2.860;2023-03-31T04:20:14;2.65;;;0.82;;
78844;SDS011;68195;50.854;2.860;2023-03-31T04:22:41;2.40;;;0.80;;
78844;SDS011;68195;50.854;2.860;2023-03-31T04:27:41;2.15;;;0.70;;
78844;SDS011;68195;50.854;2.860;2023-03-31T04:30:13;1.90;;;0.95;;
78844;SDS011;68195;50.854;2.860;2023-03-31T04:32:49;4.30;;;1.20;;
78844;SDS011;68195;50.854;2.860;2023-03-31T04:35:28;2.50;;;1.02;;
78844;SDS011;68195;50.854;2.860;2023-03-31T04:38:06;2.13;;;0.98;;
78844;SDS011;68195;50.854;2.860;2023-03-31T04:40:37;5.72;;;1.25;;
78844;SDS011;68195;50.854;2.860;2023-03-31T04:43:04;2.17;;;1.23;;
78844;SDS011;68195;50.854;2.860;2023-03-31T04:45:34;5.10;;;1.50;;
78844;SDS011;68195;50.854;2.860;2023-03-31T04:48:02;6.80;;;1.60;;
78844;SDS011;68195;50.854;2.860;2023-03-31T04:50:27;4.85;;;1.45;;
78844;SDS011;68195;50.854;2.860;2023-03-31T04:52:55;5.15;;;2.15;;
78844;SDS011;68195;50.854;2.860;2023-03-31T04:55:20;5.80;;;1.70;;
78844;SDS011;68195;50.854;2.860;2023-03-31T04:57:46;5.50;;;1.42;;
78844;SDS011;68195;50.854;2.860;2023-03-31T05:00:13;6.90;;;1.80;;
78844;SDS011;68195;50.854;2.860;2023-03-31T05:02:42;6.03;;;1.67;;
78844;SDS011;68195;50.854;2.860;2023-03-31T05:05:07;12.13;;;2.80;;
78844;SDS011;68195;50.854;2.860;2023-03-31T05:07:34;6.93;;;1.55;;
78844;SDS011;68195;50.854;2.860;2023-03-31T05:09:59;7.97;;;2.17;;
78844;SDS011;68195;50.854;2.860;2023-03-31T05:12:27;12.57;;;2.42;;
78844;SDS011;68195;50.854;2.860;2023-03-31T05:14:55;5.53;;;2.50;;
78844;SDS011;68195;50.854;2.860;2023-03-31T05:17:23;7.78;;;2.72;;
78844;SDS011;68195;50.854;2.860;2023-03-31T05:19:48;8.07;;;2.42;;
78844;SDS011;68195;50.854;2.860;2023-03-31T05:22:13;9.43;;;3.08;;
78844;SDS011;68195;50.854;2.860;2023-03-31T05:24:45;6.72;;;2.72;;
78844;SDS011;68195;50.854;2.860;2023-03-31T05:29:39;8.45;;;2.58;;
78844;SDS011;68195;50.854;2.860;2023-03-31T05:32:08;7.72;;;2.75;;
78844;SDS011;68195;50.854;2.860;2023-03-31T05:34:36;7.85;;;2.10;;
78844;SDS011;68195;50.854;2.860;2023-03-31T05:37:01;8.77;;;2.08;;
78844;SDS011;68195;50.854;2.860;2023-03-31T05:39:30;9.43;;;2.40;;
78844;SDS011;68195;50.854;2.860;2023-03-31T05:41:58;5.75;;;2.17;;
78844;SDS011;68195;50.854;2.860;2023-03-31T05:44:24;10.38;;;2.78;;
78844;SDS011;68195;50.854;2.860;2023-03-31T05:46:53;10.38;;;3.15;;
78844;SDS011;68195;50.854;2.860;2023-03-31T05:49:18;9.30;;;3.28;;
78844;SDS011;68195;50.854;2.860;2023-03-31T05:51:44;8.23;;;2.47;;
78844;SDS011;68195;50.854;2.860;2023-03-31T05:54:13;11.27;;;2.58;;
78844;SDS011;68195;50.854;2.860;2023-03-31T05:56:40;10.27;;;2.80;;
78844;SDS011;68195;50.854;2.860;2023-03-31T05:59:08;11.00;;;2.63;;
78844;SDS011;68195;50.854;2.860;2023-03-31T06:01:34;9.55;;;2.30;;
78844;SDS011;68195;50.854;2.860;2023-03-31T06:04:01;14.77;;;3.28;;
78844;SDS011;68195;50.854;2.860;2023-03-31T06:06:29;10.60;;;2.38;;
78844;SDS011;68195;50.854;2.860;2023-03-31T06:08:57;9.80;;;3.00;;
78844;SDS011;68195;50.854;2.860;2023-03-31T06:11:27;11.73;;;3.17;;
78844;SDS011;68195;50.854;2.860;2023-03-31T06:13:53;10.93;;;3.42;;
78844;SDS011;68195;50.854;2.860;2023-03-31T06:16:20;13.23;;;3.33;;
78844;SDS011;68195;50.854;2.860;2023-03-31T06:18:46;10.55;;;3.03;;
78844;SDS011;68195;50.854;2.860;2023-03-31T06:21:12;14.13;;;3.03;;
78844;SDS011;68195;50.854;2.860;2023-03-31T06:23:40;16.50;;;4.00;;
78844;SDS011;68195;50.854;2.860;2023-03-31T06:26:16;11.93;;;2.40;;
78844;SDS011;68195;50.854;2.860;2023-03-31T06:28:43;9.15;;;2.50;;
78844;SDS011;68195;50.854;2.860;2023-03-31T06:31:12;10.90;;;2.80;;
78844;SDS011;68195;50.854;2.860;2023-03-31T06:33:42;12.85;;;4.00;;
78844;SDS011;68195;50.854;2.860;2023-03-31T06:36:09;15.73;;;3.10;;
78844;SDS011;68195;50.854;2.860;2023-03-31T06:38:38;15.88;;;2.97;;
78844;SDS011;68195;50.854;2.860;2023-03-31T06:41:05;14.40;;;3.47;;
78844;SDS011;68195;50.854;2.860;2023-03-31T06:43:34;10.82;;;3.47;;
78844;SDS011;68195;50.854;2.860;2023-03-31T06:46:02;12.68;;;3.50;;
78844;SDS011;68195;50.854;2.860;2023-03-31T06:48:28;9.52;;;2.72;;
78844;SDS011;68195;50.854;2.860;2023-03-31T06:50:58;8.13;;;2.75;;
78844;SDS011;68195;50.854;2.860;2023-03-31T06:53:25;16.35;;;2.88;;
78844;SDS011;68195;50.854;2.860;2023-03-31T06:55:53;14.95;;;2.60;;
78844;SDS011;68195;50.854;2.860;2023-03-31T06:58:19;14.45;;;3.63;;
78844;SDS011;68195;50.854;2.860;2023-03-31T07:00:44;13.98;;;3.22;;
78844;SDS011;68195;50.854;2.860;2023-03-31T07:03:12;16.98;;;3.60;;
78844;SDS011;68195;50.854;2.860;2023-03-31T07:05:46;14.57;;;3.15;;
78844;SDS011;68195;50.854;2.860;2023-03-31T07:08:16;13.68;;;4.00;;
78844;SDS011;68195;50.854;2.860;2023-03-31T07:10:42;16.10;;;3.08;;
78844;SDS011;68195;50.854;2.860;2023-03-31T07:13:07;16.75;;;3.53;;
78844;SDS011;68195;50.854;2.860;2023-03-31T07:15:33;10.95;;;3.00;;
78844;SDS011;68195;50.854;2.860;2023-03-31T07:18:00;20.17;;;3.50;;
78844;SDS011;68195;50.854;2.860;2023-03-31T07:20:26;8.70;;;2.70;;
78844;SDS011;68195;50.854;2.860;2023-03-31T07:22:56;9.93;;;2.30;;
78844;SDS011;68195;50.854;2.860;2023-03-31T07:25:22;10.73;;;3.20;;
78844;SDS011;68195;50.854;2.860;2023-03-31T07:27:53;19.35;;;3.42;;
78844;SDS011;68195;50.854;2.860;2023-03-31T07:30:18;12.70;;;2.85;;
78844;SDS011;68195;50.854;2.860;2023-03-31T07:32:49;13.85;;;3.50;;
78844;SDS011;68195;50.854;2.860;2023-03-31T07:35:18;11.52;;;2.97;;
78844;SDS011;68195;50.854;2.860;2023-03-31T07:37:47;13.45;;;3.67;;
78844;SDS011;68195;50.854;2.860;2023-03-31T07:40:17;19.30;;;3.38;;
78844;SDS011;68195;50.854;2.860;2023-03-31T07:42:47;13.23;;;3.50;;
78844;SDS011;68195;50.854;2.860;2023-03-31T07:45:13;11.57;;;3.25;;
78844;SDS011;68195;50.854;2.860;2023-03-31T07:47:40;12.02;;;2.65;;
78844;SDS011;68195;50.854;2.860;2023-03-31T07:50:10;13.18;;;3.65;;
78844;SDS011;68195;50.854;2.860;2023-03-31T07:52:42;14.18;;;2.53;;
78844;SDS011;68195;50.854;2.860;2023-03-31T07:55:10;13.85;;;2.72;;
78844;SDS011;68195;50.854;2.860;2023-03-31T07:57:41;8.48;;;2.35;;
78844;SDS011;68195;50.854;2.860;2023-03-31T08:00:11;13.75;;;2.90;;
78844;SDS011;68195;50.854;2.860;2023-03-31T08:02:37;12.77;;;2.60;;
78844;SDS011;68195;50.854;2.860;2023-03-31T08:05:04;15.88;;;2.70;;
78844;SDS011;68195;50.854;2.860;2023-03-31T08:07:33;19.00;;;3.95;;
78844;SDS011;68195;50.854;2.860;2023-03-31T08:10:00;13.10;;;3.03;;
78844;SDS011;68195;50.854;2.860;2023-03-31T08:12:25;9.93;;;2.40;;
78844;SDS011;68195;50.854;2.860;2023-03-31T08:14:53;10.20;;;2.47;;
78844;SDS011;68195;50.854;2.860;2023-03-31T08:17:21;12.45;;;2.38;;
78844;SDS011;68195;50.854;2.860;2023-03-31T08:19:47;11.02;;;2.60;;
78844;SDS011;68195;50.854;2.860;2023-03-31T08:22:13;7.03;;;1.98;;
78844;SDS011;68195;50.854;2.860;2023-03-31T08:24:41;11.63;;;2.58;;
78844;SDS011;68195;50.854;2.860;2023-03-31T08:27:07;8.57;;;2.63;;
78844;SDS011;68195;50.854;2.860;2023-03-31T08:29:32;15.63;;;2.67;;
78844;SDS011;68195;50.854;2.860;2023-03-31T08:31:58;7.70;;;2.58;;
78844;SDS011;68195;50.854;2.860;2023-03-31T08:34:23;7.65;;;2.58;;
78844;SDS011;68195;50.854;2.860;2023-03-31T08:36:51;8.02;;;2.85;;
78844;SDS011;68195;50.854;2.860;2023-03-31T08:39:17;11.52;;;2.13;;
78844;SDS011;68195;50.854;2.860;2023-03-31T08:42:00;6.60;;;2.10;;
78844;SDS011;68195;50.854;2.860;2023-03-31T08:45:00;12.30;;;2.70;;
78844;SDS011;68195;50.854;2.860;2023-03-31T08:47:31;8.63;;;3.28;;
78844;SDS011;68195;50.854;2.860;2023-03-31T08:50:11;10.45;;;2.60;;
78844;SDS011;68195;50.854;2.860;2023-03-31T08:52:49;10.40;;;2.13;;
78844;SDS011;68195;50.854;2.860;2023-03-31T08:55:25;9.98;;;2.30;;
78844;SDS011;68195;50.854;2.860;2023-03-31T08:58:00;11.23;;;2.08;;
78844;SDS011;68195;50.854;2.860;2023-03-31T09:00:42;12.05;;;2.70;;
78844;SDS011;68195;50.854;2.860;2023-03-31T09:03:43;10.65;;;2.08;;
78844;SDS011;68195;50.854;2.860;2023-03-31T09:06:46;10.32;;;2.97;;
78844;SDS011;68195;50.854;2.860;2023-03-31T09:09:34;7.35;;;2.13;;
78844;SDS011;68195;50.854;2.860;2023-03-31T09:17:43;15.50;;;3.70;;
78844;SDS011;68195;50.854;2.860;2023-03-31T09:20:33;11.40;;;2.83;;
78844;SDS011;68195;50.854;2.860;2023-03-31T09:25:49;10.18;;;2.72;;
78844;SDS011;68195;50.854;2.860;2023-03-31T09:28:20;7.38;;;1.85;;
78844;SDS011;68195;50.854;2.860;2023-03-31T09:30:47;9.35;;;1.92;;
78844;SDS011;68195;50.854;2.860;2023-03-31T09:33:26;4.43;;;1.20;;
78844;SDS011;68195;50.854;2.860;2023-03-31T09:35:58;6.78;;;1.60;;
78844;SDS011;68195;50.854;2.860;2023-03-31T09:38:29;6.18;;;1.42;;
78844;SDS011;68195;50.854;2.860;2023-03-31T09:40:58;9.45;;;1.35;;
78844;SDS011;68195;50.854;2.860;2023-03-31T09:43:31;7.38;;;1.77;;
78844;SDS011;68195;50.854;2.860;2023-03-31T09:46:02;8.65;;;2.50;;
78844;SDS011;68195;50.854;2.860;2023-03-31T09:48:36;8.57;;;2.10;;
78844;SDS011;68195;50.854;2.860;2023-03-31T09:51:07;6.43;;;1.75;;
78844;SDS011;68195;50.854;2.860;2023-03-31T09:53:46;8.38;;;2.28;;
78844;SDS011;68195;50.854;2.860;2023-03-31T09:56:30;9.52;;;2.17;;
78844;SDS011;68195;50.854;2.860;2023-03-31T09:59:15;12.88;;;2.72;;
78844;SDS011;68195;50.854;2.860;2023-03-31T10:02:42;9.18;;;3.17;;
78844;SDS011;68195;50.854;2.860;2023-03-31T10:05:04;8.55;;;1.80;;
78844;SDS011;68195;50.854;2.860;2023-03-31T10:07:43;9.50;;;2.28;;
78844;SDS011;68195;50.854;2.860;2023-03-31T10:10:10;11.85;;;2.63;;
78844;SDS011;68195;50.854;2.860;2023-03-31T10:12:57;11.18;;;2.38;;
78844;SDS011;68195;50.854;2.860;2023-03-31T10:15:25;12.25;;;2.33;;
78844;SDS011;68195;50.854;2.860;2023-03-31T10:17:52;9.55;;;2.10;;
78844;SDS011;68195;50.854;2.860;2023-03-31T10:20:21;10.30;;;1.75;;
78844;SDS011;68195;50.854;2.860;2023-03-31T10:23:01;6.43;;;1.60;;
78844;SDS011;68195;50.854;2.860;2023-03-31T10:25:47;8.70;;;1.88;;
78844;SDS011;68195;50.854;2.860;2023-03-31T10:28:16;6.82;;;1.23;;
78844;SDS011;68195;50.854;2.860;2023-03-31T10:30:47;8.40;;;2.63;;
78844;SDS011;68195;50.854;2.860;2023-03-31T10:33:18;6.78;;;1.80;;
78844;SDS011;68195;50.854;2.860;2023-03-31T10:35:49;7.82;;;2.13;;
78844;SDS011;68195;50.854;2.860;2023-03-31T10:38:35;6.13;;;2.03;;
78844;SDS011;68195;50.854;2.860;2023-03-31T10:41:09;7.70;;;1.65;;
78844;SDS011;68195;50.854;2.860;2023-03-31T10:43:55;5.70;;;1.67;;
78844;SDS011;68195;50.854;2.860;2023-03-31T10:47:14;6.55;;;1.60;;
78844;SDS011;68195;50.854;2.860;2023-03-31T10:51:54;6.63;;;1.60;;
78844;SDS011;68195;50.854;2.860;2023-03-31T10:54:24;4.25;;;1.10;;
78844;SDS011;68195;50.854;2.860;2023-03-31T10:56:59;5.25;;;1.55;;
78844;SDS011;68195;50.854;2.860;2023-03-31T11:29:07;5.25;;;1.17;;
78844;SDS011;68195;50.854;2.860;2023-03-31T11:31:45;7.65;;;1.55;;
78844;SDS011;68195;50.854;2.860;2023-03-31T11:34:37;6.72;;;1.38;;
78844;SDS011;68195;50.854;2.860;2023-03-31T11:42:59;7.90;;;1.38;;
78844;SDS011;68195;50.854;2.860;2023-03-31T11:45:33;8.70;;;3.08;;
78844;SDS011;68195;50.854;2.860;2023-03-31T11:48:04;9.93;;;1.45;;
78844;SDS011;68195;50.854;2.860;2023-03-31T11:50:39;5.43;;;1.45;;
78844;SDS011;68195;50.854;2.860;2023-03-31T11:53:15;7.82;;;3.33;;
78844;SDS011;68195;50.854;2.860;2023-03-31T11:55:45;10.60;;;1.60;;
78844;SDS011;68195;50.854;2.860;2023-03-31T11:58:19;11.00;;;1.95;;
78844;SDS011;68195;50.854;2.860;2023-03-31T12:01:13;5.75;;;1.52;;
78844;SDS011;68195;50.854;2.860;2023-03-31T12:06:15;3.88;;;1.38;;
78844;SDS011;68195;50.854;2.860;2023-03-31T12:09:00;10.27;;;2.58;;
78844;SDS011;68195;50.854;2.860;2023-03-31T12:16:56;11.57;;;1.63;;
78844;SDS011;68195;50.854;2.860;2023-03-31T12:19:53;9.82;;;1.90;;
78844;SDS011;68195;50.854;2.860;2023-03-31T12:24:53;5.88;;;1.50;;
78844;SDS011;68195;50.854;2.860;2023-03-31T12:32:36;6.18;;;1.38;;
78844;SDS011;68195;50.854;2.860;2023-03-31T12:45:58;7.05;;;2.15;;
78844;SDS011;68195;50.854;2.860;2023-03-31T12:48:31;8.80;;;1.95;;
78844;SDS011;68195;50.854;2.860;2023-03-31T13:00:18;8.60;;;1.80;;
78844;SDS011;68195;50.854;2.860;2023-03-31T13:02:34;7.15;;;1.80;;
78844;SDS011;68195;50.854;2.860;2023-03-31T13:04:59;14.02;;;3.05;;
78844;SDS011;68195;50.854;2.860;2023-03-31T13:08:06;7.90;;;1.98;;
78844;SDS011;68195;50.854;2.860;2023-03-31T13:10:33;7.03;;;1.40;;
78844;SDS011;68195;50.854;2.860;2023-03-31T13:13:21;9.18;;;2.30;;
78844;SDS011;68195;50.854;2.860;2023-03-31T13:15:50;5.53;;;1.83;;
78844;SDS011;68195;50.854;2.860;2023-03-31T13:18:20;7.55;;;1.75;;
78844;SDS011;68195;50.854;2.860;2023-03-31T13:20:57;7.30;;;1.83;;
78844;SDS011;68195;50.854;2.860;2023-03-31T13:23:24;5.68;;;1.50;;
78844;SDS011;68195;50.854;2.860;2023-03-31T13:25:53;10.32;;;2.50;;
78844;SDS011;68195;50.854;2.860;2023-03-31T13:55:58;6.47;;;1.27;;
78844;SDS011;68195;50.854;2.860;2023-03-31T14:06:58;5.35;;;1.40;;
78844;SDS011;68195;50.854;2.860;2023-03-31T14:09:37;9.15;;;2.78;;
78844;SDS011;68195;50.854;2.860;2023-03-31T14:14:55;4.45;;;2.03;;
78844;SDS011;68195;50.854;2.860;2023-03-31T14:17:30;5.30;;;1.67;;
78844;SDS011;68195;50.854;2.860;2023-03-31T14:20:22;11.38;;;2.28;;
78844;SDS011;68195;50.854;2.860;2023-03-31T14:31:30;12.35;;;3.30;;
78844;SDS011;68195;50.854;2.860;2023-03-31T14:37:11;10.38;;;2.42;;
78844;SDS011;68195;50.854;2.860;2023-03-31T14:39:43;12.32;;;2.20;;
78844;SDS011;68195;50.854;2.860;2023-03-31T14:42:12;17.42;;;3.03;;
78844;SDS011;68195;50.854;2.860;2023-03-31T14:44:41;13.93;;;3.03;;
78844;SDS011;68195;50.854;2.860;2023-03-31T14:49:43;12.88;;;2.50;;
78844;SDS011;68195;50.854;2.860;2023-03-31T14:52:13;10.18;;;3.28;;
78844;SDS011;68195;50.854;2.860;2023-03-31T14:54:45;11.82;;;2.88;;
78844;SDS011;68195;50.854;2.860;2023-03-31T14:57:19;6.88;;;2.30;;
78844;SDS011;68195;50.854;2.860;2023-03-31T14:59:56;9.07;;;2.67;;
78844;SDS011;68195;50.854;2.860;2023-03-31T15:02:44;11.77;;;2.35;;
78844;SDS011;68195;50.854;2.860;2023-03-31T15:05:18;10.40;;;2.30;;
78844;SDS011;68195;50.854;2.860;2023-03-31T15:07:45;8.00;;;2.05;;
78844;SDS011;68195;50.854;2.860;2023-03-31T15:10:15;13.45;;;2.75;;
78844;SDS011;68195;50.854;2.860;2023-03-31T15:12:45;15.73;;;2.83;;
78844;SDS011;68195;50.854;2.860;2023-03-31T15:15:14;13.27;;;3.10;;
78844;SDS011;68195;50.854;2.860;2023-03-31T15:17:42;13.88;;;3.20;;
78844;SDS011;68195;50.854;2.860;2023-03-31T15:20:44;12.70;;;3.17;;
78844;SDS011;68195;50.854;2.860;2023-03-31T15:25:48;15.90;;;3.55;;
78844;SDS011;68195;50.854;2.860;2023-03-31T15:28:18;13.82;;;3.15;;
78844;SDS011;68195;50.854;2.860;2023-03-31T15:30:47;12.48;;;2.90;;
78844;SDS011;68195;50.854;2.860;2023-03-31T15:33:20;18.13;;;4.03;;
78844;SDS011;68195;50.854;2.860;2023-03-31T15:35:50;12.48;;;2.80;;
78844;SDS011;68195;50.854;2.860;2023-03-31T15:38:15;12.93;;;3.20;;
78844;SDS011;68195;50.854;2.860;2023-03-31T15:40:45;9.77;;;2.63;;
78844;SDS011;68195;50.854;2.860;2023-03-31T15:43:17;17.20;;;3.97;;
78844;SDS011;68195;50.854;2.860;2023-03-31T15:45:55;17.45;;;4.55;;
78844;SDS011;68195;50.854;2.860;2023-03-31T15:48:32;17.50;;;3.90;;
78844;SDS011;68195;50.854;2.860;2023-03-31T15:51:06;15.32;;;3.15;;
78844;SDS011;68195;50.854;2.860;2023-03-31T15:53:52;19.38;;;5.00;;
78844;SDS011;68195;50.854;2.860;2023-03-31T15:58:53;20.58;;;4.13;;
78844;SDS011;68195;50.854;2.860;2023-03-31T16:06:25;15.95;;;3.33;;
78844;SDS011;68195;50.854;2.860;2023-03-31T16:11:36;15.90;;;4.45;;
78844;SDS011;68195;50.854;2.860;2023-03-31T16:16:37;11.18;;;3.83;;
78844;SDS011;68195;50.854;2.860;2023-03-31T16:19:07;15.88;;;3.50;;
78844;SDS011;68195;50.854;2.860;2023-03-31T16:21:39;13.25;;;3.15;;
78844;SDS011;68195;50.854;2.860;2023-03-31T16:24:07;14.63;;;3.50;;
78844;SDS011;68195;50.854;2.860;2023-03-31T16:26:38;12.00;;;3.78;;
78844;SDS011;68195;50.854;2.860;2023-03-31T16:29:03;17.02;;;4.20;;
78844;SDS011;68195;50.854;2.860;2023-03-31T16:33:59;12.68;;;3.65;;
78844;SDS011;68195;50.854;2.860;2023-03-31T16:36:28;12.70;;;3.65;;
78844;SDS011;68195;50.854;2.860;2023-03-31T16:38:56;16.35;;;4.15;;
78844;SDS011;68195;50.854;2.860;2023-03-31T16:41:23;15.45;;;4.32;;
78844;SDS011;68195;50.854;2.860;2023-03-31T16:43:51;20.50;;;4.15;;
78844;SDS011;68195;50.854;2.860;2023-03-31T16:46:19;17.27;;;5.03;;
78844;SDS011;68195;50.854;2.860;2023-03-31T16:48:45;10.75;;;4.32;;
78844;SDS011;68195;50.854;2.860;2023-03-31T16:51:11;17.13;;;4.57;;
78844;SDS011;68195;50.854;2.860;2023-03-31T16:53:36;19.88;;;3.50;;
78844;SDS011;68195;50.854;2.860;2023-03-31T16:56:02;20.45;;;5.20;;
78844;SDS011;68195;50.854;2.860;2023-03-31T16:58:31;17.42;;;5.40;;
78844;SDS011;68195;50.854;2.860;2023-03-31T17:00:57;20.08;;;5.03;;
78844;SDS011;68195;50.854;2.860;2023-03-31T17:03:23;20.90;;;3.45;;
78844;SDS011;68195;50.854;2.860;2023-03-31T17:05:51;14.95;;;4.30;;
78844;SDS011;68195;50.854;2.860;2023-03-31T17:08:19;14.30;;;3.10;;
78844;SDS011;68195;50.854;2.860;2023-03-31T17:10:58;18.38;;;4.00;;
78844;SDS011;68195;50.854;2.860;2023-03-31T17:13:51;14.07;;;3.08;;
78844;SDS011;68195;50.854;2.860;2023-03-31T17:16:21;15.40;;;3.60;;
78844;SDS011;68195;50.854;2.860;2023-03-31T17:18:46;13.68;;;2.88;;
78844;SDS011;68195;50.854;2.860;2023-03-31T17:21:13;18.27;;;3.60;;
78844;SDS011;68195;50.854;2.860;2023-03-31T17:23:39;19.17;;;3.30;;
78844;SDS011;68195;50.854;2.860;2023-03-31T17:26:08;16.73;;;3.30;;
78844;SDS011;68195;50.854;2.860;2023-03-31T17:28:34;21.63;;;3.53;;
78844;SDS011;68195;50.854;2.860;2023-03-31T17:31:00;13.48;;;2.92;;
78844;SDS011;68195;50.854;2.860;2023-03-31T17:33:26;22.35;;;4.60;;
78844;SDS011;68195;50.854;2.860;2023-03-31T17:35:57;20.27;;;3.95;;
78844;SDS011;68195;50.854;2.860;2023-03-31T17:38:24;10.80;;;2.80;;
78844;SDS011;68195;50.854;2.860;2023-03-31T17:40:52;13.23;;;3.83;;
78844;SDS011;68195;50.854;2.860;2023-03-31T17:43:19;11.57;;;2.78;;
78844;SDS011;68195;50.854;2.860;2023-03-31T17:48:11;12.65;;;2.58;;
78844;SDS011;68195;50.854;2.860;2023-03-31T17:50:40;14.40;;;4.65;;
78844;SDS011;68195;50.854;2.860;2023-03-31T17:53:05;14.70;;;2.70;;
78844;SDS011;68195;50.854;2.860;2023-03-31T17:55:34;14.20;;;2.97;;
78844;SDS011;68195;50.854;2.860;2023-03-31T17:58:02;14.02;;;4.78;;
78844;SDS011;68195;50.854;2.860;2023-03-31T18:00:30;13.02;;;3.53;;
78844;SDS011;68195;50.854;2.860;2023-03-31T18:02:58;19.55;;;3.78;;
78844;SDS011;68195;50.854;2.860;2023-03-31T18:05:25;12.85;;;3.40;;
78844;SDS011;68195;50.854;2.860;2023-03-31T18:07:51;10.63;;;3.13;;
78844;SDS011;68195;50.854;2.860;2023-03-31T18:12:42;8.77;;;2.80;;
78844;SDS011;68195;50.854;2.860;2023-03-31T18:15:08;13.80;;;3.15;;
78844;SDS011;68195;50.854;2.860;2023-03-31T18:17:34;15.88;;;3.08;;
78844;SDS011;68195;50.854;2.860;2023-03-31T18:20:00;10.93;;;3.00;;
78844;SDS011;68195;50.854;2.860;2023-03-31T18:22:25;15.50;;;3.83;;
78844;SDS011;68195;50.854;2.860;2023-03-31T18:24:53;9.57;;;3.75;;
78844;SDS011;68195;50.854;2.860;2023-03-31T18:27:22;12.18;;;3.60;;
78844;SDS011;68195;50.854;2.860;2023-03-31T18:29:47;8.43;;;3.40;;
78844;SDS011;68195;50.854;2.860;2023-03-31T18:32:13;14.35;;;3.20;;
78844;SDS011;68195;50.854;2.860;2023-03-31T18:34:40;16.30;;;4.13;;
78844;SDS011;68195;50.854;2.860;2023-03-31T18:37:05;18.55;;;4.22;;
78844;SDS011;68195;50.854;2.860;2023-03-31T18:39:31;17.10;;;4.78;;
78844;SDS011;68195;50.854;2.860;2023-03-31T18:41:57;13.07;;;2.92;;
78844;SDS011;68195;50.854;2.860;2023-03-31T18:44:23;11.68;;;3.45;;
78844;SDS011;68195;50.854;2.860;2023-03-31T18:46:49;12.98;;;4.07;;
78844;SDS011;68195;50.854;2.860;2023-03-31T18:49:18;11.57;;;3.10;;
78844;SDS011;68195;50.854;2.860;2023-03-31T18:51:48;11.80;;;3.45;;